AirNav   Everest Fuels
 
 1502 users online  

HI50 Hyatt Regency Maui Hotel Heliport
Lahaina, Hawaii, USA

GOING TO LAHAINA?


FAA INFORMATION EFFECTIVE 30 JANUARY 2020

Location

FAA Identifier: HI50
Lat/Long: 20-54-42.5780N 156-41-33.8580W
20-54.709633N 156-41.564300W
20.9118272,-156.6927383
(estimated)
Elevation: 102 ft. / 31 m (estimated)
Variation: 12E (1985)
From city: 2 miles SW of LAHAINA, HI
Time zone: UTC -10 (year round; does not observe DST)
Zip code: 96761

Heliport Operations

Heliport use: Private use. Permission required prior to landing
Activation date: 08/1983
Control tower: no
ARTCC: HONOLULU CONTROL FACILITY CENTER
FSS: HONOLULU FLIGHT SERVICE STATION
Attendance: UNATNDD
Wind indicator: yes
Segmented circle: no

Heliport Communications

WX AWOS-3PT at JHM (3 nm N): 118.525 (808-665-6101)
WX ASOS at OGG (15 nm E): PHONE 808-877-6282
WX AWOS-3P at LNY (16 nm SW): 118.375 (808-565-6586)

Nearby radio navigation aids

VOR radial/distance  VOR name  Freq  Var
OGGr260/15.2MAUI VORTAC115.1011E
LNYr049/17.8LANAI VORTAC117.7011E
MKKr106/29.9MOLOKAI VORTAC116.1011E

 
NDB name  Hdg/Dist  Freq  Var  ID
VALLEY ISLAND267/14.132711EVYI ...- -.-- ..
LANAI051/17.835311ELLD .-.. .-.. -..

Heliport Services

Runway Information

Helipad H1

Dimensions: 232 x 80 ft. / 71 x 24 m
Surface: concrete
ROOFTOP.
Latitude: 20-54.709633N
Longitude: 156-41.564300W
Elevation: 102.0 ft.
Traffic pattern: leftleft

Heliport Ownership and Management from official FAA records

Ownership: Privately-owned
Owner: HOST HOTELS AND RESORTS
6903 ROCKLEDGE DRIVE, SUITE 1500
BETHESDA, MD 20817
Phone 808-661-1234
Manager: ALLEN FAEWELL
200 NOHEA KAI DRIVE
LAHAINA, HI 96761
Phone 808-521-9404

Additional Remarks

A30A-H1 USE RIGHT HAND TRAFFIC PATTERN 170-050 DEGREES.
FOR CD CTC HCF CENTER AT 808-840-6262

Instrument Procedures

There are no published instrument procedures at HI50.

Some nearby airports with instrument procedures:

PHOG - Kahului Airport (15 nm E)
PHNY - Lanai Airport (16 nm SW)
PHLU - Kalaupapa Airport (24 nm NW)
PHMK - Molokai Airport (27 nm NW)
PHHN - Hana Airport (39 nm E)
 
Loc | Ops | Rwys | IFR | FBO | Links
Com | Nav | Svcs | Stats | Notes
Area around HI50 (Hyatt Regency Maui Hotel Heliport)
 
Road maps at: MapQuest Bing Google
 
Aerial photo
WARNING: Photo may not be current or correct
Aerial photo of HI50 (Hyatt Regency Maui Hotel Heliport)
Do you have a better or more recent aerial photo of Hyatt Regency Maui Hotel Heliport that you would like to share? If so, please send us your photo.

 
Sectional chart

 
Airport distance calculator
Flying to Hyatt Regency Maui Hotel Heliport? Find the distance to fly.

From to HI50

Sunrise and sunset
Times for 24-Feb-2020
 Local
(UTC-10)
 Zulu
(UTC)
Morning civil twilight06:2916:29
Sunrise06:5216:52
Sunset18:2804:28
Evening civil twilight18:5104:51

Current date and time
Zulu (UTC)  24-Feb-2020 18:50:07
Local (UTC-10)  24-Feb-2020 08:50:07
 
METAR
PHJH 
8nm NE 
241745Z 07006KT 10SM FEW025 21/18 A3016
PHOG 
15nm E 
241754Z 00000KT 10SM FEW035 21/17 A3016 RMK AO2 SLP219 T02060167 10222 20178 53015
PHNY 
16nm SW 
241756Z AUTO 00000KT 10SM 19/18 A3021 RMK AO2 SLP211 T01890178 10189 20150 53014
TAF
PHJH 
8nm NE 
240054Z 2401/2424 29007KT P6SM SCT030 SCT050 FM240600 VRB06KT P6SM SCT030 SCT040 FM242000 05010KT P6SM SCT030 SCT045
PHOG 
15nm E 
240146Z 2402/2424 01008KT P6SM FEW025 SCT050 FM240600 VRB05KT P6SM FEW025 FM242100 04010KT P6SM FEW025 SCT050
NOTAMs
Click for the latest NOTAMs
NOTAMs are issued by the DoD/FAA and will open in a separate window not controlled by AirNav.

 

 
 

Would you like to see your business listed on this page?

 If your business provides an interesting product or service to pilots, flight crews, aircraft, or users of the Hyatt Regency Maui Hotel Heliport, you should consider listing it here.  To start the listing process, click on the button below
 
Add a business
 

Other Pages about Hyatt Regency Maui Hotel Heliport

Update a link
 
Copyright © AirNav, LLC. All rights reserved. Privacy Policy  Contact